createdAt,value
2023-03-23T16:00:23.593Z,6.70
2023-03-23T16:03:35.038Z,5.90
2023-03-23T16:06:38.543Z,6.10
2023-03-23T16:09:42.553Z,6.40
2023-03-23T16:12:46.743Z,6.30
2023-03-23T16:15:50.359Z,7.20
2023-03-23T16:18:53.406Z,6.50
2023-03-23T16:21:56.149Z,7.30
2023-03-23T16:24:58.896Z,7.80
2023-03-23T16:28:02.154Z,7.60
2023-03-23T16:31:05.707Z,6.90
2023-03-23T16:34:09.165Z,6.60
2023-03-23T16:37:12.203Z,6.90
2023-03-23T16:40:16.790Z,5.40
2023-03-23T16:43:19.595Z,5.10
2023-03-23T16:46:22.594Z,5.80
2023-03-23T16:49:25.826Z,6.30
2023-03-23T16:52:28.814Z,7.30
2023-03-23T16:55:32.547Z,6.20
2023-03-23T16:58:35.792Z,7.70
2023-03-23T17:01:39.205Z,8.80
2023-03-23T17:04:46.430Z,8.00
2023-03-23T17:07:49.448Z,8.00
2023-03-23T17:10:52.726Z,7.30
2023-03-23T17:13:55.567Z,7.50
2023-03-23T17:16:58.884Z,7.40
2023-03-23T17:20:02.284Z,8.10
2023-03-23T17:23:05.457Z,8.70
2023-03-23T17:26:08.373Z,8.60
2023-03-23T17:29:11.182Z,8.00
2023-03-23T17:32:14.714Z,7.50
2023-03-23T17:35:17.564Z,6.50
2023-03-23T17:38:20.500Z,9.20
2023-03-23T17:41:23.208Z,11.20
2023-03-23T17:44:26.549Z,8.40
2023-03-23T17:47:29.418Z,11.20
2023-03-23T17:50:32.306Z,10.40
2023-03-23T17:53:36.551Z,9.90
2023-03-23T17:56:39.646Z,11.60
2023-03-23T17:59:43.210Z,12.60
2023-03-23T18:02:46.030Z,10.00
2023-03-23T18:05:51.046Z,10.00
2023-03-23T18:08:53.801Z,8.70
2023-03-23T18:11:57.027Z,8.70
2023-03-23T18:15:00.150Z,11.50
2023-03-23T18:18:06.753Z,8.20
2023-03-23T18:21:10.967Z,39.30
2023-03-23T18:24:14.347Z,73.10
2023-03-23T18:27:17.631Z,33.20
2023-03-23T18:30:21.002Z,34.10
2023-03-23T18:33:25.838Z,22.20
2023-03-23T18:36:28.965Z,41.60
2023-03-23T18:39:34.261Z,25.60
2023-03-23T18:42:42.194Z,13.20
2023-03-23T18:45:53.453Z,13.60
2023-03-23T18:48:56.403Z,19.80
2023-03-23T18:52:00.383Z,18.50
2023-03-23T18:55:04.023Z,23.90
2023-03-23T18:58:06.797Z,39.10
2023-03-23T19:01:12.905Z,26.40
2023-03-23T19:04:16.069Z,16.70
2023-03-23T19:07:19.857Z,16.50
2023-03-23T19:10:23.989Z,17.90
2023-03-23T19:13:29.156Z,20.10
2023-03-23T19:16:35.804Z,23.20
2023-03-23T19:19:39.068Z,19.40
2023-03-23T19:22:41.922Z,22.40
2023-03-23T19:25:45.680Z,21.20
2023-03-23T19:31:55.946Z,43.00
2023-03-23T19:34:59.205Z,37.60
2023-03-23T19:38:02.200Z,42.60
2023-03-23T19:41:06.275Z,83.90
2023-03-23T19:44:09.513Z,103.00
2023-03-23T19:47:12.764Z,45.70
2023-03-23T19:50:16.588Z,47.80
2023-03-23T19:53:20.203Z,49.60
2023-03-23T19:56:24.001Z,41.30
2023-03-23T19:59:26.883Z,24.20
2023-03-23T20:02:29.644Z,28.50
2023-03-23T20:05:35.154Z,15.40
2023-03-23T20:08:43.315Z,16.70
2023-03-23T20:11:46.551Z,16.20
2023-03-23T20:14:49.503Z,11.30
2023-03-23T20:17:53.098Z,12.00
2023-03-23T20:21:11.307Z,11.30
2023-03-23T20:24:14.232Z,9.60
2023-03-23T20:27:17.774Z,7.30
2023-03-23T20:30:20.655Z,10.00
2023-03-23T20:33:23.559Z,9.80
2023-03-23T20:36:29.852Z,7.30
2023-03-23T20:39:33.678Z,7.60
2023-03-23T20:42:37.038Z,13.20
2023-03-23T20:45:39.766Z,8.90
2023-03-23T20:48:42.773Z,11.70
2023-03-23T20:51:46.655Z,9.30
2023-03-23T20:54:50.817Z,6.80
2023-03-23T20:57:53.588Z,7.10
2023-03-23T21:00:58.160Z,11.40
2023-03-23T21:04:03.195Z,14.60
2023-03-23T21:07:06.292Z,11.20
2023-03-23T21:10:09.168Z,9.00
2023-03-23T21:13:13.199Z,10.60
2023-03-23T21:16:16.065Z,6.90
2023-03-23T21:19:19.759Z,9.70
2023-03-23T21:22:23.280Z,8.90
2023-03-23T21:25:34.828Z,10.00
2023-03-23T21:28:38.235Z,7.50
2023-03-23T21:31:41.647Z,6.40
2023-03-23T21:34:46.662Z,6.00
2023-03-23T21:37:49.979Z,6.40
2023-03-23T21:40:54.576Z,8.20
2023-03-23T21:43:57.896Z,7.30
2023-03-23T21:47:02.096Z,6.10
2023-03-23T21:50:07.108Z,8.70
2023-03-23T21:53:12.901Z,8.50
2023-03-23T21:56:16.609Z,10.70
2023-03-23T21:59:19.351Z,8.80
2023-03-23T22:02:22.520Z,14.40
2023-03-23T22:05:25.346Z,45.80
2023-03-23T22:08:29.720Z,27.90
2023-03-23T22:11:32.850Z,74.70
2023-03-23T22:14:35.645Z,41.70
2023-03-23T22:17:39.889Z,22.10
2023-03-23T22:20:43.546Z,22.30
2023-03-23T22:23:46.784Z,38.50
2023-03-23T22:26:49.844Z,21.20
2023-03-23T22:29:52.657Z,24.80
2023-03-23T22:32:57.705Z,23.80
2023-03-23T22:36:06.261Z,17.00
2023-03-23T22:39:09.816Z,16.10
2023-03-23T22:42:13.521Z,44.20
2023-03-23T22:45:16.783Z,19.30
2023-03-23T22:48:25.284Z,25.50
2023-03-23T22:51:28.558Z,17.50
2023-03-23T22:54:31.392Z,23.90
2023-03-23T22:57:35.834Z,16.40
2023-03-23T23:00:40.268Z,15.30
2023-03-23T23:03:43.408Z,20.40
2023-03-23T23:06:46.238Z,12.30
2023-03-23T23:09:48.981Z,13.90
2023-03-23T23:12:54.003Z,9.80
2023-03-23T23:15:58.556Z,11.60
2023-03-23T23:19:01.308Z,9.10
2023-03-23T23:22:18.366Z,9.10
2023-03-23T23:25:22.513Z,9.10
2023-03-23T23:28:25.546Z,10.40
2023-03-23T23:31:33.615Z,9.30
2023-03-23T23:34:36.905Z,9.90
2023-03-23T23:37:39.692Z,10.80
2023-03-23T23:40:44.539Z,12.60
2023-03-23T23:43:47.521Z,11.80
2023-03-23T23:46:50.350Z,10.30
2023-03-23T23:49:53.168Z,12.90
2023-03-23T23:52:56.342Z,12.90
2023-03-23T23:56:03.877Z,11.70
2023-03-23T23:59:06.793Z,13.50
